Khamis Mushait, Saudi Arabia
Current Conditions -  °F | °C
As of 6:00 AM on Sunday 21 Dec 2014 (Local Time) from OEKM Reporting Station
Clear Clear  
Wind Chill: 44°   Ceiling: Unl
Heat Index: 46°   Visibility: 6mi
Dew Point: 45°   Wind: 5mph
Humidity: 93%   Direction: 180°S
Pressure: 30.24"   Gusts: NA
Location:  18.3°N, 42.8°E
Report Text: OEKM 210300Z 18004KT CAVOK 08/07 Q1024 NOSIG
Loading
Personal Weather Stations






























Interactive Weather Map New forecast layout! Learn more

10-Day Weather Forecast

Advertisements
Track Severe Weather on mobile